Time;durP1;ratioP1;P1;durP2;ratioP2;P2;SDS_P1;SDS_P2;PMS_P1;PMS_P2;Temp;Humidity;BMP_temperature;BMP_pressure;BME280_temperature;BME280_humidity;BME280_pressure;Samples;Min_cycle;Max_cycle;Signal;HPM_P1;HPM_P2
2022/08/24 00:01:56;;;;;;;2.27;0.83;;;;;;;;;;5114429;28;20199;-82
2022/08/24 00:04:25;;;;;;;0.50;0.50;;;;;;;;;;5113945;28;20228;-82
2022/08/24 00:06:55;;;;;;;0.50;0.50;;;;;;;;;;5115585;28;20205;-83
2022/08/24 00:09:23;;;;;;;1.27;1.27;;;;;;;;;;5113913;28;20197;-83
2022/08/24 00:11:53;;;;;;;1.63;1.53;;;;;;;;;;5115376;28;20257;-83
2022/08/24 00:14:22;;;;;;;0.27;0.27;;;;;;;;;;5114198;28;20217;-83
2022/08/24 00:16:50;;;;;;;1.80;1.63;;;;;;;;;;5114064;28;20208;-82
2022/08/24 00:19:18;;;;;;;0.40;0.40;;;;;;;;;;5112119;28;20219;-83
2022/08/24 00:21:47;;;;;;;0.40;0.40;;;;;;;;;;5114072;28;20208;-83
2022/08/24 00:24:15;;;;;;;0.30;0.30;;;;;;;;;;5130898;27;20203;-83
2022/08/24 00:26:44;;;;;;;0.50;0.50;;;;;;;;;;5114929;28;20207;-83
2022/08/24 00:29:15;;;;;;;0.70;0.70;;;;;;;;;;5113608;28;20263;-83
2022/08/24 00:31:44;;;;;;;0.30;0.30;;;;;;;;;;5114539;28;20236;-83
2022/08/24 00:34:12;;;;;;;0.60;0.60;;;;;;;;;;5113549;28;20210;-83
2022/08/24 00:36:41;;;;;;;0.30;0.30;;;;;;;;;;5113365;28;20219;-83
2022/08/24 00:39:10;;;;;;;0.30;0.30;;;;;;;;;;5113423;28;20222;-83
2022/08/24 00:41:41;;;;;;;0.63;0.63;;;;;;;;;;5113838;28;20204;-83
2022/08/24 00:44:10;;;;;;;0.60;0.60;;;;;;;;;;5113567;28;20536;-83
2022/08/24 00:46:45;;;;;;;0.30;0.30;;;;;;;;;;5113578;28;20214;-83
2022/08/24 00:49:19;;;;;;;0.40;0.40;;;;;;;;;;5113520;28;20190;-83
2022/08/24 00:51:54;;;;;;;0.30;0.30;;;;;;;;;;5112880;28;20207;-83
2022/08/24 00:54:24;;;;;;;6.43;4.53;;;;;;;;;;5113042;28;20209;-83
2022/08/24 00:56:55;;;;;;;4.13;3.53;;;;;;;;;;5113362;28;20197;-83
2022/08/24 00:59:24;;;;;;;1.67;1.57;;;;;;;;;;5113568;28;20259;-83
2022/08/24 01:01:54;;;;;;;0.30;0.30;;;;;;;;;;5113355;28;20193;-83
2022/08/24 01:04:28;;;;;;;1.17;1.07;;;;;;;;;;5114677;28;20297;-83
2022/08/24 01:06:56;;;;;;;2.40;1.97;;;;;;;;;;5113175;28;20213;-83
2022/08/24 01:09:25;;;;;;;1.33;1.27;;;;;;;;;;5114320;28;20248;-83
2022/08/24 01:11:53;;;;;;;0.60;0.60;;;;;;;;;;5112814;28;20208;-83
2022/08/24 01:14:22;;;;;;;0.30;0.30;;;;;;;;;;5113260;28;20194;-83
2022/08/24 01:19:39;;;;;;;0.40;0.40;;;;;;;;;;5112879;28;20230;-83
2022/08/24 01:22:25;;;;;;;0.30;0.30;;;;;;;;;;5113849;28;20201;-83
2022/08/24 01:24:55;;;;;;;2.23;2.03;;;;;;;;;;5113917;28;20259;-83
2022/08/24 01:27:24;;;;;;;0.40;0.40;;;;;;;;;;5112938;28;20197;-83
2022/08/24 01:29:55;;;;;;;1.30;1.20;;;;;;;;;;5113334;28;20291;-83
2022/08/24 01:32:26;;;;;;;0.53;0.53;;;;;;;;;;5114193;28;20281;-83
2022/08/24 01:34:55;;;;;;;0.40;0.40;;;;;;;;;;5112745;28;20225;-83
2022/08/24 01:37:23;;;;;;;2.40;2.20;;;;;;;;;;5112693;28;20286;-83
2022/08/24 01:39:54;;;;;;;0.70;0.70;;;;;;;;;;5112603;28;20213;-82
2022/08/24 01:42:25;;;;;;;0.93;0.93;;;;;;;;;;5112734;28;20211;-83
2022/08/24 01:44:54;;;;;;;3.60;1.70;;;;;;;;;;5112814;28;20212;-83
2022/08/24 01:47:22;;;;;;;4.53;3.13;;;;;;;;;;5112479;28;20193;-83
2022/08/24 01:49:51;;;;;;;3.57;2.90;;;;;;;;;;5112754;28;20211;-83
2022/08/24 01:52:20;;;;;;;5.07;3.70;;;;;;;;;;5113857;28;20277;-83
2022/08/24 01:54:49;;;;;;;3.63;3.30;;;;;;;;;;5112453;28;20196;-82
2022/08/24 01:57:19;;;;;;;5.50;3.87;;;;;;;;;;5112282;28;20200;-82
2022/08/24 01:59:51;;;;;;;3.73;3.10;;;;;;;;;;5112268;28;20223;-83
2022/08/24 02:02:22;;;;;;;6.03;3.27;;;;;;;;;;5115086;28;20218;-83
2022/08/24 02:04:51;;;;;;;5.40;3.60;;;;;;;;;;5117614;28;20207;-83
2022/08/24 02:07:19;;;;;;;2.30;2.10;;;;;;;;;;5116382;28;20194;-83
2022/08/24 02:09:48;;;;;;;5.87;4.43;;;;;;;;;;5117753;28;20199;-83
2022/08/24 02:12:16;;;;;;;2.90;2.67;;;;;;;;;;5116561;28;20196;-83
2022/08/24 02:14:45;;;;;;;3.07;2.77;;;;;;;;;;5117537;28;20214;-83
2022/08/24 02:17:14;;;;;;;6.00;3.10;;;;;;;;;;5116455;28;20189;-83
2022/08/24 02:19:43;;;;;;;9.33;5.30;;;;;;;;;;5116855;28;20223;-83
2022/08/24 02:22:11;;;;;;;6.43;5.17;;;;;;;;;;5121982;27;20194;-83
2022/08/24 02:24:41;;;;;;;7.13;5.23;;;;;;;;;;5133361;27;20195;-82
2022/08/24 02:27:09;;;;;;;4.50;3.57;;;;;;;;;;5116037;28;20203;-83
2022/08/24 02:29:38;;;;;;;7.20;4.47;;;;;;;;;;5115905;28;20251;-82
2022/08/24 02:32:06;;;;;;;6.27;5.47;;;;;;;;;;5117105;28;20196;-82
2022/08/24 02:34:36;;;;;;;5.83;3.97;;;;;;;;;;5115978;28;20198;-83
2022/08/24 02:37:05;;;;;;;4.40;3.80;;;;;;;;;;5117039;28;20238;-83
2022/08/24 02:39:34;;;;;;;8.07;5.50;;;;;;;;;;5102685;28;20214;-83
2022/08/24 02:42:02;;;;;;;6.43;5.27;;;;;;;;;;5116173;28;20202;-83
2022/08/24 02:44:31;;;;;;;2.40;2.20;;;;;;;;;;5116100;28;20214;-83
2022/08/24 02:46:59;;;;;;;6.03;3.23;;;;;;;;;;5115802;28;20196;-83
2022/08/24 02:49:27;;;;;;;6.23;5.47;;;;;;;;;;5116020;28;20207;-83
2022/08/24 02:51:57;;;;;;;6.10;5.30;;;;;;;;;;5116655;28;20236;-83
2022/08/24 02:54:25;;;;;;;9.33;5.63;;;;;;;;;;5115561;28;20200;-83
2022/08/24 02:56:54;;;;;;;6.23;4.50;;;;;;;;;;5116013;28;20201;-83
2022/08/24 02:59:23;;;;;;;7.73;5.53;;;;;;;;;;5115910;28;20201;-82
2022/08/24 03:01:52;;;;;;;7.23;4.93;;;;;;;;;;5116299;28;20211;-82
2022/08/24 03:04:21;;;;;;;5.83;4.23;;;;;;;;;;5115312;28;20199;-82
2022/08/24 03:06:49;;;;;;;0.33;0.33;;;;;;;;;;5115077;28;20250;-82
2022/08/24 03:09:19;;;;;;;9.17;5.73;;;;;;;;;;5115436;28;20216;-82
2022/08/24 03:11:50;;;;;;;2.23;2.03;;;;;;;;;;5113998;28;20207;-83
2022/08/24 03:14:19;;;;;;;0.30;0.30;;;;;;;;;;5115566;28;20201;-82
2022/08/24 03:16:47;;;;;;;4.67;3.00;;;;;;;;;;5114748;28;20202;-83
2022/08/24 03:19:16;;;;;;;1.57;1.47;;;;;;;;;;5115391;28;20229;-83
2022/08/24 03:21:44;;;;;;;1.63;1.53;;;;;;;;;;5114795;28;20211;-82
2022/08/24 03:24:13;;;;;;;0.30;0.30;;;;;;;;;;5115273;28;20203;-82
2022/08/24 03:26:43;;;;;;;0.33;0.33;;;;;;;;;;5114710;28;20201;-83
2022/08/24 03:29:12;;;;;;;0.40;0.40;;;;;;;;;;5115040;28;20248;-83
2022/08/24 03:31:43;;;;;;;0.30;0.30;;;;;;;;;;5115889;28;20286;-83
2022/08/24 03:34:12;;;;;;;1.73;1.00;;;;;;;;;;5115109;28;20201;-83
2022/08/24 03:36:44;;;;;;;0.40;0.40;;;;;;;;;;5101977;28;20215;-82
2022/08/24 03:39:13;;;;;;;4.93;4.53;;;;;;;;;;5115034;28;20195;-83
2022/08/24 03:41:43;;;;;;;9.57;7.17;;;;;;;;;;5114890;28;20213;-83
2022/08/24 03:44:11;;;;;;;7.77;6.57;;;;;;;;;;5115528;28;20209;-83
2022/08/24 03:46:40;;;;;;;7.00;6.23;;;;;;;;;;5115887;28;20211;-83
2022/08/24 03:49:09;;;;;;;8.47;6.70;;;;;;;;;;5114874;28;20206;-83
2022/08/24 03:51:38;;;;;;;6.40;3.83;;;;;;;;;;5115499;28;20220;-83
2022/08/24 03:54:07;;;;;;;2.60;2.30;;;;;;;;;;5114834;28;20201;-82
2022/08/24 03:56:36;;;;;;;2.10;2.00;;;;;;;;;;5114895;28;20209;-82
2022/08/24 03:59:06;;;;;;;0.70;0.70;;;;;;;;;;5114265;28;20207;-83
2022/08/24 04:01:35;;;;;;;2.17;2.00;;;;;;;;;;5114508;28;20216;-83
2022/08/24 04:04:03;;;;;;;0.30;0.30;;;;;;;;;;5114285;28;20211;-83
2022/08/24 04:06:32;;;;;;;0.30;0.30;;;;;;;;;;5115253;28;20212;-82
2022/08/24 04:09:00;;;;;;;1.03;1.03;;;;;;;;;;5114189;28;20221;-82
2022/08/24 04:11:30;;;;;;;1.17;0.63;;;;;;;;;;5114336;28;20201;-82
2022/08/24 04:13:59;;;;;;;0.37;0.37;;;;;;;;;;5114411;28;20202;-83
2022/08/24 04:16:29;;;;;;;0.30;0.30;;;;;;;;;;5131006;27;20257;-83
2022/08/24 04:18:58;;;;;;;0.30;0.30;;;;;;;;;;5114967;28;20242;-83
2022/08/24 04:21:27;;;;;;;0.50;0.50;;;;;;;;;;5113854;28;20222;-83
2022/08/24 04:23:55;;;;;;;0.60;0.60;;;;;;;;;;5114208;28;20195;-82
2022/08/24 04:26:25;;;;;;;0.30;0.30;;;;;;;;;;5114628;28;20196;-82
2022/08/24 04:29:13;;;;;;;1.80;1.70;;;;;;;;;;5114892;28;20234;-83
2022/08/24 04:31:43;;;;;;;2.20;2.10;;;;;;;;;;5113448;28;20226;-82
2022/08/24 04:34:13;;;;;;;4.07;2.80;;;;;;;;;;5113983;28;20198;-82
2022/08/24 04:36:42;;;;;;;2.93;2.63;;;;;;;;;;5100654;28;20293;-84
2022/08/24 04:39:10;;;;;;;4.70;4.10;;;;;;;;;;5113841;28;20197;-83
2022/08/24 04:41:40;;;;;;;1.73;1.63;;;;;;;;;;5114592;28;20222;-83
2022/08/24 04:44:09;;;;;;;3.97;2.97;;;;;;;;;;5113517;28;20217;-83
2022/08/24 04:46:39;;;;;;;1.30;1.30;;;;;;;;;;5113493;28;20198;-82
2022/08/24 04:49:09;;;;;;;0.87;0.87;;;;;;;;;;5113394;28;20200;-82
2022/08/24 04:51:38;;;;;;;1.50;1.50;;;;;;;;;;5114460;28;20218;-83
2022/08/24 04:54:07;;;;;;;1.67;1.47;;;;;;;;;;5100780;28;20209;-83
2022/08/24 04:56:35;;;;;;;1.63;1.53;;;;;;;;;;5113676;28;20203;-83
2022/08/24 04:59:04;;;;;;;10.43;8.17;;;;;;;;;;5113183;28;20192;-83
2022/08/24 05:01:33;;;;;;;10.63;8.10;;;;;;;;;;5113272;28;20211;-83
2022/08/24 05:04:02;;;;;;;10.07;8.93;;;;;;;;;;5113240;28;20192;-82
2022/08/24 05:06:33;;;;;;;11.17;7.00;;;;;;;;;;5113106;28;20207;-83
2022/08/24 05:09:02;;;;;;;7.10;6.03;;;;;;;;;;5111928;28;20227;-83
2022/08/24 05:11:30;;;;;;;12.90;9.83;;;;;;;;;;5114093;28;20203;-83
2022/08/24 05:13:59;;;;;;;16.03;10.80;;;;;;;;;;5112821;28;20252;-83
2022/08/24 05:16:27;;;;;;;16.20;7.20;;;;;;;;;;5114210;28;20200;-82
2022/08/24 05:18:59;;;;;;;16.50;10.23;;;;;;;;;;5112878;28;20235;-83
2022/08/24 05:21:29;;;;;;;11.73;8.37;;;;;;;;;;5112951;28;20274;-82
2022/08/24 05:23:59;;;;;;;8.80;7.77;;;;;;;;;;5112796;28;20214;-82
2022/08/24 05:26:29;;;;;;;8.93;6.80;;;;;;;;;;5113868;28;20203;-83
2022/08/24 05:28:59;;;;;;;7.13;6.00;;;;;;;;;;5113716;28;20224;-83
2022/08/24 05:31:28;;;;;;;15.13;9.97;;;;;;;;;;5112690;28;20192;-83
2022/08/24 05:33:58;;;;;;;3.33;3.03;;;;;;;;;;5114133;28;20197;-83
2022/08/24 05:36:27;;;;;;;14.73;8.27;;;;;;;;;;5113505;28;20228;-83
2022/08/24 05:38:57;;;;;;;11.87;8.87;;;;;;;;;;5112998;28;20202;-82
2022/08/24 05:41:26;;;;;;;4.37;3.97;;;;;;;;;;5112624;28;20219;-82
2022/08/24 05:43:55;;;;;;;13.50;7.20;;;;;;;;;;5113594;28;20279;-83
2022/08/24 05:46:23;;;;;;;9.27;7.07;;;;;;;;;;5113681;28;20198;-83
2022/08/24 05:48:52;;;;;;;6.17;4.60;;;;;;;;;;5113651;28;20287;-83
2022/08/24 05:51:21;;;;;;;13.67;7.30;;;;;;;;;;5113947;28;20193;-83
2022/08/24 05:53:50;;;;;;;14.23;8.50;;;;;;;;;;5112361;28;20204;-83
2022/08/24 05:56:19;;;;;;;12.17;7.57;;;;;;;;;;5113694;28;20201;-83
2022/08/24 05:58:49;;;;;;;9.73;6.77;;;;;;;;;;5112345;28;20213;-82
2022/08/24 06:01:19;;;;;;;15.77;11.07;;;;;;;;;;5112527;28;20213;-83
2022/08/24 06:03:48;;;;;;;11.17;7.57;;;;;;;;;;5112267;28;20259;-83
2022/08/24 06:06:18;;;;;;;11.03;8.37;;;;;;;;;;5112546;28;20210;-81
2022/08/24 06:08:50;;;;;;;16.87;11.73;;;;;;;;;;5112111;28;20241;-83
2022/08/24 06:11:23;;;;;;;13.70;10.67;;;;;;;;;;5112279;28;20198;-83
2022/08/24 06:14:04;;;;;;;0.63;0.63;;;;;;;;;;5113357;28;20204;-82
2022/08/24 06:16:35;;;;;;;2.33;2.23;;;;;;;;;;5112429;28;20200;-83
2022/08/24 06:19:03;;;;;;;8.23;6.50;;;;;;;;;;5113319;28;20194;-83
2022/08/24 06:21:32;;;;;;;3.53;3.20;;;;;;;;;;5112465;28;20212;-83
2022/08/24 06:24:00;;;;;;;15.63;11.57;;;;;;;;;;5113537;28;20204;-82
2022/08/24 06:29:18;;;;;;;15.27;13.63;;;;;;;;;;5114565;28;20236;-82
2022/08/24 06:31:48;;;;;;;11.43;6.83;;;;;;;;;;5114509;28;20215;-82
2022/08/24 06:34:23;;;;;;;7.37;5.43;;;;;;;;;;5113111;28;20212;-82
2022/08/24 06:36:51;;;;;;;13.97;10.47;;;;;;;;;;5113026;28;20200;-83
2022/08/24 06:39:21;;;;;;;18.17;11.60;;;;;;;;;;5113572;28;20203;-82
2022/08/24 06:41:49;;;;;;;25.57;7.23;;;;;;;;;;5113854;28;20221;-82
2022/08/24 06:44:19;;;;;;;11.13;7.67;;;;;;;;;;5114213;28;20190;-82
2022/08/24 06:46:48;;;;;;;1.60;1.50;;;;;;;;;;5114632;28;20216;-82
2022/08/24 06:49:17;;;;;;;6.43;5.17;;;;;;;;;;5113550;28;20225;-83
2022/08/24 06:51:46;;;;;;;12.43;8.20;;;;;;;;;;5117276;28;20188;-83
2022/08/24 06:54:19;;;;;;;8.33;4.60;;;;;;;;;;5115287;28;20200;-83
2022/08/24 06:56:50;;;;;;;7.90;5.30;;;;;;;;;;5114141;28;20208;-83
2022/08/24 06:59:20;;;;;;;8.50;5.10;;;;;;;;;;5111388;28;20233;-83
2022/08/24 07:01:53;;;;;;;8.80;5.03;;;;;;;;;;5123454;27;20216;-82
2022/08/24 07:04:30;;;;;;;9.00;5.83;;;;;;;;;;5104064;28;20193;-82
2022/08/24 07:07:00;;;;;;;7.23;3.40;;;;;;;;;;5107976;28;20209;-82
2022/08/24 07:09:33;;;;;;;7.57;5.80;;;;;;;;;;5111092;28;20188;-82
2022/08/24 07:12:04;;;;;;;5.47;3.67;;;;;;;;;;5116622;28;20206;-82
2022/08/24 07:14:34;;;;;;;7.87;5.73;;;;;;;;;;5132710;27;20206;-82
2022/08/24 07:17:07;;;;;;;1.57;1.47;;;;;;;;;;5108978;28;20197;-81
2022/08/24 07:19:41;;;;;;;4.87;4.37;;;;;;;;;;5123487;27;20211;-81
2022/08/24 07:22:22;;;;;;;5.23;4.73;;;;;;;;;;5110531;28;20211;-82
2022/08/24 07:24:57;;;;;;;3.70;2.07;;;;;;;;;;5124972;27;20205;-83
2022/08/24 07:27:47;;;;;;;3.97;3.27;;;;;;;;;;5109467;28;20200;-82
2022/08/24 07:30:31;;;;;;;4.63;4.13;;;;;;;;;;5113090;27;20254;-81
2022/08/24 07:33:00;;;;;;;0.80;0.80;;;;;;;;;;5115222;28;20200;-82
2022/08/24 07:35:34;;;;;;;5.27;3.10;;;;;;;;;;5123890;27;20230;-82
2022/08/24 07:38:09;;;;;;;6.53;3.57;;;;;;;;;;5105195;27;20222;-82
2022/08/24 07:40:42;;;;;;;4.33;3.33;;;;;;;;;;5107485;28;20207;-82
2022/08/24 07:43:32;;;;;;;4.60;3.67;;;;;;;;;;5106464;28;20229;-82
2022/08/24 07:46:12;;;;;;;7.40;4.87;;;;;;;;;;5107146;27;20262;-82
2022/08/24 07:48:44;;;;;;;4.37;2.87;;;;;;;;;;5126938;27;20215;-82
2022/08/24 07:51:19;;;;;;;4.23;2.97;;;;;;;;;;5110050;28;20209;-81
2022/08/24 07:54:08;;;;;;;3.47;2.33;;;;;;;;;;5111577;28;20206;-82
2022/08/24 07:56:53;;;;;;;1.47;1.30;;;;;;;;;;5110237;28;20262;-82
2022/08/24 07:59:34;;;;;;;2.80;2.37;;;;;;;;;;5106701;28;20210;-81
2022/08/24 08:02:26;;;;;;;4.03;1.97;;;;;;;;;;5108331;28;20200;-83
2022/08/24 08:05:16;;;;;;;0.37;0.37;;;;;;;;;;5130068;27;20198;-83
2022/08/24 08:11:13;;;;;;;3.10;1.07;;;;;;;;;;5089734;28;20228;-83
2022/08/24 08:13:55;;;;;;;2.07;1.67;;;;;;;;;;5114460;28;20286;-83
2022/08/24 08:16:33;;;;;;;2.37;1.80;;;;;;;;;;5114565;28;20205;-83
2022/08/24 08:19:27;;;;;;;4.43;1.87;;;;;;;;;;5131808;27;20207;-82
2022/08/24 08:25:20;;;;;;;2.00;1.77;;;;;;;;;;5113673;28;20207;-82
2022/08/24 08:28:15;;;;;;;3.60;2.20;;;;;;;;;;5115519;28;20204;-82
2022/08/24 08:34:12;;;;;;;2.83;2.10;;;;;;;;;;5109399;28;20291;-83
2022/08/24 08:36:58;;;;;;;0.80;0.80;;;;;;;;;;5116661;28;20219;-82
2022/08/24 08:39:46;;;;;;;1.47;1.37;;;;;;;;;;5116696;28;20223;-82
2022/08/24 08:42:50;;;;;;;0.50;0.50;;;;;;;;;;5117222;28;20235;-82
2022/08/24 08:45:35;;;;;;;0.73;0.73;;;;;;;;;;5116367;28;20225;-82
2022/08/24 08:48:21;;;;;;;2.43;0.50;;;;;;;;;;5104242;28;20203;-82
2022/08/24 08:51:00;;;;;;;0.60;0.60;;;;;;;;;;5102615;28;20214;-83
2022/08/24 08:53:57;;;;;;;1.70;1.60;;;;;;;;;;5116486;28;20189;-83
2022/08/24 08:56:45;;;;;;;1.10;1.03;;;;;;;;;;5104307;27;20209;-83
2022/08/24 08:59:48;;;;;;;1.10;1.00;;;;;;;;;;5106043;28;20209;-82
2022/08/24 09:02:41;;;;;;;1.47;1.37;;;;;;;;;;5115313;28;20198;-82
2022/08/24 09:05:39;;;;;;;5.10;1.93;;;;;;;;;;5115385;28;20202;-82
2022/08/24 09:08:59;;;;;;;1.30;1.20;;;;;;;;;;5021873;28;20292;-82
2022/08/24 09:11:40;;;;;;;2.30;1.90;;;;;;;;;;5036934;28;20291;-83
2022/08/24 09:14:26;;;;;;;4.03;1.90;;;;;;;;;;5052202;28;20274;-82
2022/08/24 09:17:16;;;;;;;2.20;2.00;;;;;;;;;;5044670;28;20200;-83
2022/08/24 09:20:01;;;;;;;1.40;1.20;;;;;;;;;;5036414;28;20228;-83
2022/08/24 09:22:36;;;;;;;6.30;3.07;;;;;;;;;;5043073;28;20202;-82
2022/08/24 09:28:45;;;;;;;1.70;1.37;;;;;;;;;;5036556;28;20204;-82
2022/08/24 09:31:29;;;;;;;9.53;2.43;;;;;;;;;;5036669;28;20257;-83
2022/08/24 09:34:07;;;;;;;1.23;1.13;;;;;;;;;;5037834;28;20212;-82
2022/08/24 09:36:47;;;;;;;0.93;0.80;;;;;;;;;;5019048;28;20232;-83
2022/08/24 09:39:30;;;;;;;1.60;1.17;;;;;;;;;;5036668;28;20289;-82
2022/08/24 09:42:20;;;;;;;1.80;1.70;;;;;;;;;;5036380;28;20279;-82
2022/08/24 09:45:16;;;;;;;0.40;0.40;;;;;;;;;;5054734;27;20217;-83
2022/08/24 09:48:11;;;;;;;0.20;0.20;;;;;;;;;;5119818;28;20204;-83
2022/08/24 09:51:20;;;;;;;2.23;1.60;;;;;;;;;;5117937;28;20202;-83
2022/08/24 09:54:34;;;;;;;1.63;1.03;;;;;;;;;;5118227;28;20205;-83
2022/08/24 09:57:22;;;;;;;2.70;1.50;;;;;;;;;;5033636;28;20219;-82
2022/08/24 10:00:36;;;;;;;;;;;;;;;;;;;;;
2022/08/24 10:03:33;;;;;;;2.53;1.63;;;;;;;;;;5117496;28;20208;-82
2022/08/24 10:06:26;;;;;;;2.40;1.20;;;;;;;;;;5104078;28;20205;-82
2022/08/24 10:09:16;;;;;;;0.47;0.47;;;;;;;;;;5117089;28;20214;-82
2022/08/24 10:12:14;;;;;;;0.50;0.50;;;;;;;;;;5117235;28;20193;-82
2022/08/24 10:15:00;;;;;;;0.63;0.63;;;;;;;;;;5117492;28;20199;-82
2022/08/24 10:17:35;;;;;;;2.60;0.90;;;;;;;;;;5113456;27;20206;-81
2022/08/24 10:20:09;;;;;;;2.23;2.10;;;;;;;;;;5110103;27;20202;-81
2022/08/24 10:22:50;;;;;;;8.87;1.33;;;;;;;;;;5124628;27;20196;-81
2022/08/24 10:25:27;;;;;;;0.30;0.30;;;;;;;;;;5134616;27;20227;-80
2022/08/24 10:28:01;;;;;;;1.87;1.77;;;;;;;;;;5110635;27;20252;-81
2022/08/24 10:30:55;;;;;;;1.83;1.43;;;;;;;;;;5130621;27;20291;-80
2022/08/24 10:33:29;;;;;;;3.97;1.57;;;;;;;;;;5116843;27;20203;-83
2022/08/24 10:36:08;;;;;;;4.97;2.70;;;;;;;;;;5128518;27;20228;-83
2022/08/24 10:41:56;;;;;;;2.13;1.17;;;;;;;;;;5118825;27;20213;-83
2022/08/24 10:44:49;;;;;;;0.77;0.77;;;;;;;;;;5107832;27;20309;-83
2022/08/24 10:47:27;;;;;;;0.57;0.53;;;;;;;;;;5103552;27;20274;-82
2022/08/24 10:50:16;;;;;;;1.27;1.17;;;;;;;;;;5107873;27;20208;-82
2022/08/24 10:53:09;;;;;;;3.50;2.27;;;;;;;;;;5133479;27;20258;-82
2022/08/24 10:55:40;;;;;;;1.67;1.47;;;;;;;;;;5109574;27;20245;-83
2022/08/24 10:58:40;;;;;;;3.23;1.60;;;;;;;;;;5115869;28;20296;-82
2022/08/24 11:01:17;;;;;;;2.47;1.43;;;;;;;;;;5106616;27;20202;-82
2022/08/24 11:03:54;;;;;;;1.83;1.73;;;;;;;;;;5114016;27;20210;-82
2022/08/24 11:06:34;;;;;;;4.13;2.03;;;;;;;;;;5118572;27;20225;-82
2022/08/24 11:12:18;;;;;;;2.57;2.07;;;;;;;;;;5111309;27;20347;-83
2022/08/24 11:15:01;;;;;;;1.63;1.50;;;;;;;;;;5129808;27;20285;-83
2022/08/24 11:17:56;;;;;;;2.00;1.47;;;;;;;;;;5108693;27;20193;-83
2022/08/24 11:20:29;;;;;;;1.73;1.63;;;;;;;;;;5114763;27;20248;-81
2022/08/24 11:23:03;;;;;;;3.90;2.80;;;;;;;;;;5113130;27;20293;-82
2022/08/24 11:25:53;;;;;;;3.40;1.63;;;;;;;;;;5116773;27;20234;-81
2022/08/24 11:28:34;;;;;;;2.03;1.27;;;;;;;;;;5106128;27;20205;-81
2022/08/24 11:31:33;;;;;;;4.20;1.90;;;;;;;;;;5110650;27;20320;-81
2022/08/24 11:34:06;;;;;;;2.50;2.00;;;;;;;;;;5117912;27;20205;-81
2022/08/24 11:36:36;;;;;;;2.23;2.10;;;;;;;;;;5115881;27;20279;-81
2022/08/24 11:39:14;;;;;;;2.13;1.70;;;;;;;;;;5107855;27;20289;-83
2022/08/24 11:41:49;;;;;;;1.97;1.43;;;;;;;;;;5135273;27;20225;-81
2022/08/24 11:44:25;;;;;;;0.80;0.80;;;;;;;;;;5115632;27;20209;-82
2022/08/24 11:46:57;;;;;;;1.27;1.00;;;;;;;;;;5107762;28;20293;-81
2022/08/24 11:49:44;;;;;;;2.13;1.33;;;;;;;;;;5134961;27;20199;-82
2022/08/24 11:52:36;;;;;;;2.97;2.20;;;;;;;;;;5125872;27;20244;-83
2022/08/24 11:55:35;;;;;;;1.53;1.37;;;;;;;;;;5073464;28;20206;-83
2022/08/24 11:58:31;;;;;;;4.73;2.70;;;;;;;;;;5080002;28;20296;-84
2022/08/24 12:01:06;;;;;;;0.63;0.63;;;;;;;;;;5082384;28;20212;-83
2022/08/24 12:03:44;;;;;;;1.33;1.07;;;;;;;;;;5084215;28;20225;-84
2022/08/24 12:06:26;;;;;;;5.40;2.30;;;;;;;;;;5080126;28;20227;-82
2022/08/24 12:09:01;;;;;;;2.57;0.63;;;;;;;;;;5075482;28;20263;-82
2022/08/24 12:11:39;;;;;;;1.60;1.50;;;;;;;;;;5068527;28;20219;-83
2022/08/24 12:14:12;;;;;;;1.00;0.83;;;;;;;;;;5112761;27;20288;-83
2022/08/24 12:16:46;;;;;;;1.37;1.00;;;;;;;;;;5111812;27;20318;-83
2022/08/24 12:19:18;;;;;;;1.20;1.07;;;;;;;;;;5125771;27;20195;-83
2022/08/24 12:21:51;;;;;;;1.00;0.93;;;;;;;;;;5108553;27;20207;-83
2022/08/24 12:24:24;;;;;;;0.70;0.70;;;;;;;;;;5113415;27;20308;-84
2022/08/24 12:26:55;;;;;;;0.47;0.47;;;;;;;;;;5132720;27;20216;-83
2022/08/24 12:29:27;;;;;;;3.10;1.23;;;;;;;;;;5131001;27;20207;-82
2022/08/24 12:31:58;;;;;;;2.60;1.70;;;;;;;;;;5114644;27;20235;-84
2022/08/24 12:34:32;;;;;;;4.03;1.50;;;;;;;;;;5117478;27;20329;-83
2022/08/24 12:37:06;;;;;;;0.40;0.40;;;;;;;;;;5127620;27;20207;-82
2022/08/24 12:39:45;;;;;;;0.90;0.90;;;;;;;;;;5141072;27;20203;-83
2022/08/24 12:42:17;;;;;;;2.17;0.97;;;;;;;;;;5114154;27;20202;-84
2022/08/24 12:44:49;;;;;;;4.30;1.37;;;;;;;;;;5114734;27;20265;-84
2022/08/24 12:47:22;;;;;;;0.83;0.83;;;;;;;;;;5119368;27;20202;-84
2022/08/24 12:50:03;;;;;;;0.23;0.23;;;;;;;;;;5117213;27;20211;-84
2022/08/24 12:52:42;;;;;;;0.40;0.40;;;;;;;;;;5116598;27;20191;-83
2022/08/24 12:55:18;;;;;;;0.30;0.30;;;;;;;;;;5117638;27;20254;-83
2022/08/24 12:57:53;;;;;;;0.30;0.30;;;;;;;;;;5116102;27;20205;-83
2022/08/24 13:00:31;;;;;;;0.57;0.57;;;;;;;;;;5114956;27;20191;-83
2022/08/24 13:03:06;;;;;;;0.90;0.90;;;;;;;;;;5117260;27;20215;-83
2022/08/24 13:05:45;;;;;;;0.70;0.70;;;;;;;;;;5148365;27;20223;-83
2022/08/24 13:08:34;;;;;;;0.53;0.53;;;;;;;;;;5115718;27;20196;-83
2022/08/24 13:11:05;;;;;;;0.50;0.50;;;;;;;;;;5116565;27;20209;-83
2022/08/24 13:13:42;;;;;;;0.43;0.43;;;;;;;;;;5115628;27;20200;-83
2022/08/24 13:16:11;;;;;;;0.50;0.50;;;;;;;;;;5117069;27;20196;-83
2022/08/24 13:18:53;;;;;;;0.50;0.50;;;;;;;;;;5116414;27;20290;-83
2022/08/24 13:21:49;;;;;;;0.97;0.97;;;;;;;;;;5116411;27;20208;-83
2022/08/24 13:24:49;;;;;;;0.30;0.30;;;;;;;;;;5115593;27;20191;-83
2022/08/24 13:27:48;;;;;;;0.80;0.73;;;;;;;;;;5115991;27;20191;-83
2022/08/24 13:30:32;;;;;;;0.90;0.63;;;;;;;;;;5115124;28;20234;-86
2022/08/24 13:33:10;;;;;;;0.93;0.93;;;;;;;;;;5114874;28;20203;-85
2022/08/24 13:36:00;;;;;;;0.37;0.37;;;;;;;;;;5116964;27;20228;-85
2022/08/24 13:38:49;;;;;;;0.73;0.73;;;;;;;;;;5126065;27;20230;-83
2022/08/24 13:41:27;;;;;;;0.53;0.53;;;;;;;;;;5117445;28;20235;-83
2022/08/24 13:43:59;;;;;;;0.70;0.70;;;;;;;;;;5115945;27;20195;-83
2022/08/24 13:46:32;;;;;;;1.33;1.10;;;;;;;;;;5116158;28;20208;-83
2022/08/24 13:49:02;;;;;;;0.73;0.67;;;;;;;;;;5113365;28;20203;-83
2022/08/24 13:51:43;;;;;;;1.00;0.90;;;;;;;;;;5116009;28;20222;-83
2022/08/24 13:54:19;;;;;;;0.37;0.37;;;;;;;;;;5143331;27;20206;-83
2022/08/24 13:56:58;;;;;;;8.13;0.83;;;;;;;;;;5115483;28;20195;-83
2022/08/24 13:59:38;;;;;;;2.10;1.67;;;;;;;;;;5119468;27;20207;-83
2022/08/24 14:02:10;;;;;;;1.17;0.50;;;;;;;;;;5120010;27;20203;-84
2022/08/24 14:04:44;;;;;;;0.50;0.50;;;;;;;;;;5116682;27;20192;-83
2022/08/24 14:07:17;;;;;;;1.17;1.07;;;;;;;;;;5120080;27;20207;-84
2022/08/24 14:09:49;;;;;;;0.57;0.57;;;;;;;;;;5118230;27;20200;-84
2022/08/24 14:12:22;;;;;;;0.83;0.60;;;;;;;;;;5119865;27;20344;-84
2022/08/24 14:15:02;;;;;;;1.00;0.80;;;;;;;;;;5138020;27;20255;-83
2022/08/24 14:17:52;;;;;;;1.17;1.17;;;;;;;;;;5120058;27;20199;-83
2022/08/24 14:20:38;;;;;;;0.50;0.50;;;;;;;;;;5126460;27;20192;-83
2022/08/24 14:36:42;;;;;;;1.20;1.10;;;;;;;;;;6133545;22;1475646;-84
2022/08/24 14:39:21;;;;;;;0.57;0.57;;;;;;;;;;6198663;23;20177;-84
2022/08/24 14:42:07;;;;;;;0.67;0.60;;;;;;;;;;6199077;23;20181;-84
2022/08/24 14:44:46;;;;;;;0.60;0.60;;;;;;;;;;6198897;23;20197;-84
2022/08/24 14:47:21;;;;;;;0.40;0.40;;;;;;;;;;6225448;23;20169;-83
2022/08/24 14:50:03;;;;;;;0.47;0.47;;;;;;;;;;6198623;23;20177;-84
2022/08/24 14:52:46;;;;;;;0.30;0.30;;;;;;;;;;6224951;23;20247;-84
2022/08/24 14:55:19;;;;;;;5.50;1.40;;;;;;;;;;6224916;23;20436;-84
2022/08/24 14:57:58;;;;;;;0.47;0.47;;;;;;;;;;6198588;23;20239;-84
2022/08/24 15:00:34;;;;;;;3.40;0.73;;;;;;;;;;6224729;23;20227;-84
2022/08/24 15:03:16;;;;;;;2.13;1.93;;;;;;;;;;6198845;23;20181;-84
2022/08/24 15:05:49;;;;;;;0.83;0.83;;;;;;;;;;6224757;23;20249;-84
2022/08/24 15:08:42;;;;;;;0.73;0.40;;;;;;;;;;6198321;23;20232;-85
2022/08/24 15:11:12;;;;;;;0.40;0.40;;;;;;;;;;6225175;23;20173;-84
2022/08/24 15:13:46;;;;;;;1.03;1.00;;;;;;;;;;6198780;23;20177;-84
2022/08/24 15:16:17;;;;;;;1.57;1.10;;;;;;;;;;6199114;23;20179;-84
2022/08/24 15:18:49;;;;;;;1.83;1.17;;;;;;;;;;6224904;23;20166;-84
2022/08/24 15:21:24;;;;;;;0.30;0.30;;;;;;;;;;6198768;23;20190;-84
2022/08/24 15:24:00;;;;;;;0.70;0.70;;;;;;;;;;6198597;23;20229;-85
2022/08/24 15:26:33;;;;;;;0.20;0.20;;;;;;;;;;6198350;23;20179;-84
2022/08/24 15:29:11;;;;;;;0.77;0.77;;;;;;;;;;6198050;23;20185;-84
2022/08/24 15:31:40;;;;;;;0.40;0.40;;;;;;;;;;6197905;23;20216;-84
2022/08/24 15:34:09;;;;;;;0.50;0.50;;;;;;;;;;6198111;23;20217;-84
2022/08/24 15:36:37;;;;;;;0.57;0.57;;;;;;;;;;6219656;23;20205;-84
2022/08/24 15:39:07;;;;;;;0.30;0.30;;;;;;;;;;6191123;23;20196;-84
2022/08/24 15:41:40;;;;;;;8.13;1.23;;;;;;;;;;6191348;23;20227;-84
2022/08/24 15:44:18;;;;;;;0.77;0.77;;;;;;;;;;6191281;23;20221;-84
2022/08/24 15:46:52;;;;;;;0.53;0.53;;;;;;;;;;6191053;23;20193;-85
2022/08/24 15:49:22;;;;;;;0.73;0.73;;;;;;;;;;6217402;23;20170;-84
2022/08/24 15:51:52;;;;;;;0.40;0.40;;;;;;;;;;6191225;23;20207;-84
2022/08/24 15:54:35;;;;;;;0.90;0.83;;;;;;;;;;6190902;23;20181;-85
2022/08/24 15:57:04;;;;;;;0.50;0.50;;;;;;;;;;6192060;23;20175;-86
2022/08/24 15:59:45;;;;;;;1.10;1.00;;;;;;;;;;6190245;23;20175;-83
2022/08/24 16:02:25;;;;;;;0.63;0.63;;;;;;;;;;6217131;23;20168;-85
2022/08/24 16:05:00;;;;;;;0.50;0.50;;;;;;;;;;6190487;23;20208;-85
2022/08/24 16:07:32;;;;;;;0.20;0.20;;;;;;;;;;6191318;23;20181;-85
2022/08/24 16:10:25;;;;;;;3.20;0.97;;;;;;;;;;6191326;23;20200;-85
2022/08/24 16:12:53;;;;;;;0.50;0.50;;;;;;;;;;6191491;23;20177;-85